This is the latest recevied weather packets stored in our database for station/object KC4QLP. If no packets are shown the sender has not sent any weather packets the latest 10 day(s).
| Time | Temp. | Humidity | Pressure | Rain* | Wind** | Luminosity | Snow |
|---|---|---|---|---|---|---|---|
| 1777962611 | 18.89° C | 47% | 1002.5 hPa | 0 mm | - | 0 W/m² | - |
| 1777960811 | 18.89° C | 47% | 1002.4 hPa | 0 mm | - | 0 W/m² | - |
| 1777959011 | 18.89° C | 47% | 1002.6 hPa | 0 mm | - | 0 W/m² | - |
| 1777957211 | 18.89° C | 47% | 1002.9 hPa | 0 mm | - | 0 W/m² | - |
| 1777955411 | 18.89° C | 47% | 1002.9 hPa | 0 mm | - | 0 W/m² | - |
| 1777953611 | 18.89° C | 47% | 1002.6 hPa | 0 mm | - | 0 W/m² | - |
| 1777951811 | 18.89° C | 47% | 1002.4 hPa | 0 mm | - | 0 W/m² | - |
| 1777950012 | 18.89° C | 47% | 1002.5 hPa | 0 mm | - | 0 W/m² | - |
| 1777948211 | 18.89° C | 47% | 1002.5 hPa | 0 mm | - | 0 W/m² | - |
| 1777946412 | 18.89° C | 47% | 1002.6 hPa | 0 mm | - | 0 W/m² | - |
| 1777944611 | 18.89° C | 47% | 1002.6 hPa | 0 mm | - | 0 W/m² | - |
| 1777942812 | 18.89° C | 47% | 1002.4 hPa | 0 mm | - | 0 W/m² | - |
| 1777941012 | 18.89° C | 47% | 1001.8 hPa | 0 mm | - | 0 W/m² | - |
| 1777939211 | 18.89° C | 47% | 1001.5 hPa | 0 mm | - | 0 W/m² | - |
| 1777937411 | 18.89° C | 47% | 1001.6 hPa | 0 mm | - | 0 W/m² | - |
| 1777935611 | 19.44° C | 49% | 1001.3 hPa | 0 mm | - | 0 W/m² | - |
| 1777933812 | 21.11° C | 43% | 1001.3 hPa | 0 mm | - | 0 W/m² | - |
| 1777932011 | 21.67° C | 42% | 1001.3 hPa | 0 mm | - | 0 W/m² | - |
| 1777930212 | 22.78° C | 41% | 1001.7 hPa | 0 mm | - | 0 W/m² | - |
| 1777928412 | 22.22° C | 39% | 1001.9 hPa | 0 mm | - | 0 W/m² | - |
| 1777926612 | 22.78° C | 39% | 1002.1 hPa | 0 mm | - | 0 W/m² | - |
| 1777924812 | 22.22° C | 42% | 1002.4 hPa | 0 mm | - | 0 W/m² | - |
| 1777923012 | 21.67° C | 41% | 1002.7 hPa | 0 mm | - | 0 W/m² | - |
| 1777921212 | 20.56° C | 44% | 1003 hPa | 0 mm | - | 0 W/m² | - |
| 1777919412 | 20.56° C | 44% | 1003.3 hPa | 0 mm | - | 0 W/m² | - |
* Rain latest hour (hover to see other rain measurements)
** Current wind speed in m/s (hover to see current wind gust speed)